Cruz Bay, VI (00830)

1:10 PM AST on August 28, 2015 (GMT -0400)
Great Cruz Bay, St John | | Change Station
CLOSE
Current Station
Personal Weather Station
Location: St John, VI
Elevation: 59 ft
Nearby Weather Stations

Elev 59 ft 18.33 °N, 64.79 °W | Updated 3 seconds ago

Partly Cloudy
Partly Cloudy
83.9 °F
Feels Like 94 °F
N
13.0
Wind Variable Wind from ESE
Gusts 14.0 mph

Today
High -- | Low -- °F
--% Chance of Precip.
Yesterday
High -- | Low -- °F
Precip. -- in
6:03 AM 6:36 PM
Waxing Gibbous, 98% visible
Pressure 30.02 in
Visibility 10.0 miles
Clouds Few 2300 ft
Heat Index 94 °F
Dew Point 77 °F
Humidity 81%
Rainfall 0.00 in
Snow Depth Not available.
UV 11 out of 12
Pollen Not available.
Air Quality Not available.
Flu Activity Not available.
METAR TIST 281653Z 12018G24KT 10SM FEW023 32/26 A3001 RMK AO2 SLP164 T03170256
Pressure 30.02 in
Visibility 10.0 miles
Clouds Few 2300 ft
Heat Index 94 °F
Dew Point 77 °F
Humidity 81%
Rainfall 0.00 in
Snow Depth Not available.
UV 11 out of 12
Pollen Not available.
Air Quality Not available.
Flu Activity Not available.
METAR TIST 281653Z 12018G24KT 10SM FEW023 32/26 A3001 RMK AO2 SLP164 T03170256
Erika has become very unorganized in the face of strong wind shear in the eastern Caribbean Sea. The storm will pass directly over mountainous Hispaniola today, likely weakening it further. If the storm remains intact, it could reach an area favorable for strengthening before moving onto Florida by early next week. Follow the live blog

10-Day Weather Forecast

×

Almanac

Astronomy

Aug. 28, 2015 Rise Set
Actual Time
Civil Twilight
Nautical Twilight
Astronomical Twilight
Moon
Length of Visible Light
Length of Day
Tomorrow will be .
, % of the Moon is Illuminated

Today's Extremes

State Highs State Lows

Community

WunderPhotos

Upload Photos

1,850,438 photos uploaded!

WunderBlogs® & News

Nearby

Air Quality

  Air Quality AQ Index Pollutant
Not available.

Snow Depth

Station Depth Elevation

Earthquake Activity

City Distance Mag. Time & Date
Minimum magnitude displayed is 2.5.

Coastal Water Temperatures

Place Temperature

Stations

Nearby Weather Stations

Station Location Temp. Windchill Dew Point Humidity Wind Precip. Elev Updated Type